Time;durP1;ratioP1;P1;durP2;ratioP2;P2;SDS_P1;SDS_P2;PMS_P1;PMS_P2;Temp;Humidity;BMP_temperature;BMP_pressure;BME280_temperature;BME280_humidity;BME280_pressure;Samples;Min_cycle;Max_cycle;Signal;HPM_P1;HPM_P2
2022/12/30 00:01:24;;;;;;;4.50;1.23;;;8.90;72.60;;;;;;5030935;28;20492;-56
2022/12/30 00:03:51;;;;;;;3.30;1.87;;;8.90;66.50;;;;;;5028822;28;20522;-55
2022/12/30 00:06:20;;;;;;;6.30;1.93;;;8.90;73.90;;;;;;5034822;28;20994;-56
2022/12/30 00:08:48;;;;;;;4.20;1.60;;;8.90;71.00;;;;;;5035585;28;20490;-56
2022/12/30 00:11:17;;;;;;;4.87;1.90;;;8.90;72.00;;;;;;5032619;28;20467;-53
2022/12/30 00:33:28;;;;;;;3.37;1.20;;;9.10;82.10;;;;;;5029664;28;20614;-54
2022/12/30 00:35:54;;;;;;;5.90;1.50;;;9.00;82.50;;;;;;5034904;28;20509;-53
2022/12/30 00:38:21;;;;;;;2.20;1.33;;;9.00;81.90;;;;;;5031236;28;21009;-55
2022/12/30 00:43:32;;;;;;;5.70;2.03;;;9.00;76.90;;;;;;5029967;28;20525;-54
2022/12/30 00:45:59;;;;;;;2.90;1.47;;;9.00;73.90;;;;;;5032776;28;20550;-53
2022/12/30 00:56:42;;;;;;;7.53;2.10;;;8.90;68.80;;;;;;5031213;28;20563;-55
2022/12/30 00:59:09;;;;;;;3.77;1.87;;;8.90;66.90;;;;;;5031451;28;20574;-56
2022/12/30 01:01:36;;;;;;;3.03;1.20;;;8.80;67.70;;;;;;5034561;28;20536;-54
2022/12/30 01:04:04;;;;;;;4.20;1.97;;;8.80;62.60;;;;;;5034760;28;20488;-55
2022/12/30 01:06:30;;;;;;;3.20;1.47;;;8.70;60.60;;;;;;5032515;28;20522;-54
2022/12/30 01:08:57;;;;;;;8.47;1.63;;;8.70;50.20;;;;;;5029433;28;20492;-54
2022/12/30 01:11:24;;;;;;;3.97;1.73;;;8.60;49.70;;;;;;5030972;28;20463;-54
2022/12/30 01:13:51;;;;;;;2.57;1.30;;;8.50;50.20;;;;;;5028569;28;20471;-55
2022/12/30 01:16:18;;;;;;;5.53;2.30;;;8.50;52.40;;;;;;5023276;28;22860;-55
2022/12/30 01:18:45;;;;;;;7.37;2.20;;;8.40;49.80;;;;;;5030121;28;20455;-55
2022/12/30 01:21:12;;;;;;;2.47;1.50;;;8.40;51.90;;;;;;5032550;28;20490;-56
2022/12/30 01:23:39;;;;;;;8.43;2.13;;;8.30;49.40;;;;;;5035555;28;20470;-55
2022/12/30 01:26:07;;;;;;;3.37;1.60;;;8.20;44.40;;;;;;5032522;28;20491;-57
2022/12/30 01:28:36;;;;;;;3.53;1.80;;;8.10;48.00;;;;;;5031349;28;20575;-55
2022/12/30 01:31:05;;;;;;;3.70;1.57;;;8.10;48.70;;;;;;5032799;28;20531;-57
2022/12/30 01:33:32;;;;;;;3.73;1.17;;;8.00;51.00;;;;;;5034680;28;20540;-56
2022/12/30 01:35:59;;;;;;;1.90;1.33;;;7.90;44.70;;;;;;5031348;28;20550;-54
2022/12/30 01:38:28;;;;;;;4.90;1.30;;;8.00;48.10;;;;;;5031969;28;20530;-55
2022/12/30 01:40:55;;;;;;;4.33;1.47;;;7.90;50.70;;;;;;5030029;28;20520;-54
2022/12/30 01:43:39;;;;;;;2.30;1.40;;;7.90;56.30;;;;;;5029946;28;20551;-55
2022/12/30 01:46:06;;;;;;;8.60;1.80;;;8.00;57.40;;;;;;5032563;28;20495;-57
2022/12/30 01:48:34;;;;;;;3.53;1.77;;;7.90;55.90;;;;;;5033135;28;20483;-56
2022/12/30 01:51:04;;;;;;;7.30;1.93;;;7.90;57.60;;;;;;5032006;28;20475;-56
2022/12/30 01:53:35;;;;;;;6.13;2.07;;;7.90;56.90;;;;;;5032246;28;20502;-55
2022/12/30 01:56:05;;;;;;;8.40;1.50;;;7.80;51.90;;;;;;5033312;28;20872;-55
2022/12/30 01:58:36;;;;;;;4.20;1.43;;;7.80;52.00;;;;;;5031449;28;20496;-54
2022/12/30 02:01:03;;;;;;;9.63;2.30;;;7.70;51.40;;;;;;5032462;28;20918;-54
2022/12/30 02:03:35;;;;;;;6.90;2.00;;;7.70;52.40;;;;;;5032964;28;21005;-54
2022/12/30 02:06:03;;;;;;;3.80;1.37;;;7.70;52.90;;;;;;5032181;28;20547;-54
2022/12/30 02:08:33;;;;;;;5.53;1.77;;;7.70;54.30;;;;;;5028753;28;20590;-55
2022/12/30 02:11:00;;;;;;;8.33;2.10;;;7.70;51.00;;;;;;5027771;28;20984;-56
2022/12/30 02:13:27;;;;;;;6.73;2.43;;;7.70;52.00;;;;;;5032690;28;20479;-54
2022/12/30 02:16:16;;;;;;;2.50;1.40;;;7.80;58.40;;;;;;5031386;28;21003;-55
2022/12/30 02:19:02;;;;;;;4.60;1.37;;;7.80;56.20;;;;;;5029104;28;20486;-55
2022/12/30 02:22:00;;;;;;;3.37;1.80;;;7.80;58.80;;;;;;5031347;28;21013;-54
2022/12/30 02:25:01;;;;;;;9.17;2.90;;;7.80;58.50;;;;;;5030672;28;20986;-54
2022/12/30 02:28:06;;;;;;;5.63;1.67;;;7.90;61.90;;;;;;5027671;28;20745;-56
2022/12/30 02:30:51;;;;;;;6.43;1.73;;;7.90;62.20;;;;;;5030955;28;20509;-54
2022/12/30 02:33:26;;;;;;;6.90;2.20;;;7.90;65.90;;;;;;5030787;28;20546;-55
2022/12/30 02:36:01;;;;;;;5.90;1.77;;;7.90;65.40;;;;;;5032797;28;20482;-56
2022/12/30 02:38:38;;;;;;;6.20;2.27;;;7.90;66.50;;;;;;5033209;28;20514;-54
2022/12/30 02:46:48;;;;;;;6.00;1.60;;;7.90;61.50;;;;;;5025561;28;20475;-55
2022/12/30 02:49:17;;;;;;;7.73;1.80;;;7.90;55.90;;;;;;5028667;28;20578;-55
2022/12/30 02:54:29;;;;;;;2.53;1.80;;;7.90;57.90;;;;;;5029611;28;20510;-56
2022/12/30 02:56:56;;;;;;;3.43;1.67;;;7.90;57.90;;;;;;5025659;28;21103;-55
2022/12/30 03:05:25;;;;;;;7.10;2.20;;;7.90;59.10;;;;;;5027975;28;20458;-57
2022/12/30 03:07:58;;;;;;;8.67;2.00;;;7.90;59.90;;;;;;5029532;28;21044;-57
2022/12/30 03:13:21;;;;;;;5.30;1.87;;;7.90;56.50;;;;;;5028066;28;20454;-56
2022/12/30 03:15:55;;;;;;;2.77;1.40;;;7.90;57.60;;;;;;5029574;28;20549;-54
2022/12/30 03:18:25;;;;;;;4.73;1.83;;;7.90;54.90;;;;;;5027726;28;20570;-54
2022/12/30 03:20:53;;;;;;;5.00;2.00;;;7.80;56.60;;;;;;5029708;28;21047;-54
2022/12/30 03:28:50;;;;;;;8.57;2.10;;;7.80;56.90;;;;;;5027104;28;20486;-54
2022/12/30 03:31:17;;;;;;;8.43;2.77;;;7.70;57.70;;;;;;5026036;28;20962;-54
2022/12/30 03:33:45;;;;;;;7.23;1.87;;;7.70;57.50;;;;;;5027101;28;20559;-55
2022/12/30 03:36:17;;;;;;;12.20;2.73;;;7.70;61.50;;;;;;5028137;28;20467;-55
2022/12/30 03:38:51;;;;;;;5.93;2.60;;;7.70;61.00;;;;;;5028235;28;21190;-54
2022/12/30 03:41:20;;;;;;;10.43;2.10;;;7.80;64.50;;;;;;5029029;28;20550;-56
2022/12/30 03:43:46;;;;;;;9.30;2.17;;;7.80;61.60;;;;;;5029646;28;20554;-57
2022/12/30 03:46:13;;;;;;;7.73;2.00;;;7.70;63.60;;;;;;5029217;28;20553;-54
2022/12/30 03:48:40;;;;;;;5.57;2.27;;;7.80;64.20;;;;;;5029471;28;21188;-54
2022/12/30 03:51:08;;;;;;;9.43;2.27;;;7.70;60.80;;;;;;5029154;28;20495;-55
2022/12/30 03:53:34;;;;;;;7.10;1.90;;;7.80;63.70;;;;;;5031252;28;20542;-57
2022/12/30 03:56:01;;;;;;;5.17;1.77;;;7.70;64.10;;;;;;5031564;28;20538;-54
2022/12/30 03:58:27;;;;;;;9.37;2.67;;;7.70;68.80;;;;;;5031096;28;20549;-55
2022/12/30 04:00:54;;;;;;;5.40;2.33;;;7.80;70.30;;;;;;5028616;28;20559;-54
2022/12/30 04:03:20;;;;;;;7.37;2.70;;;7.70;67.60;;;;;;5029740;28;20546;-54
2022/12/30 04:05:47;;;;;;;7.50;2.77;;;7.70;67.90;;;;;;5027269;28;20498;-54
2022/12/30 04:08:15;;;;;;;5.77;1.90;;;7.70;66.50;;;;;;5029961;28;20582;-52
2022/12/30 04:10:41;;;;;;;11.00;2.50;;;7.70;64.80;;;;;;5029013;28;20539;-52
2022/12/30 04:13:08;;;;;;;10.80;2.30;;;7.70;67.70;;;;;;5031298;28;20491;-52
2022/12/30 04:15:34;;;;;;;8.40;2.33;;;7.60;63.80;;;;;;5026455;28;20855;-52
2022/12/30 04:18:01;;;;;;;7.70;2.10;;;7.50;62.50;;;;;;5025879;28;20572;-52
2022/12/30 04:20:27;;;;;;;8.10;2.27;;;7.40;61.10;;;;;;5029947;28;20546;-52
2022/12/30 04:22:57;;;;;;;7.20;2.57;;;7.30;59.70;;;;;;5026937;28;20553;-52
2022/12/30 04:25:26;;;;;;;10.53;2.63;;;7.30;60.10;;;;;;5030117;28;20468;-51
2022/12/30 04:27:53;;;;;;;5.23;1.83;;;7.30;58.30;;;;;;5028370;28;20853;-52
2022/12/30 04:30:20;;;;;;;7.30;2.37;;;7.10;55.20;;;;;;5026885;28;20548;-52
2022/12/30 04:32:46;;;;;;;11.97;2.10;;;7.10;53.80;;;;;;5029118;28;20500;-52
2022/12/30 04:35:13;;;;;;;5.43;2.40;;;7.00;45.80;;;;;;5029348;28;21025;-52
2022/12/30 04:37:40;;;;;;;6.43;2.10;;;7.00;50.00;;;;;;5028694;28;20587;-52
2022/12/30 04:40:08;;;;;;;7.23;2.37;;;7.00;50.20;;;;;;5026735;28;21060;-52
2022/12/30 04:42:36;;;;;;;5.77;1.87;;;6.90;47.50;;;;;;5024559;28;20538;-52
2022/12/30 04:45:03;;;;;;;8.80;1.97;;;6.90;46.10;;;;;;5028444;28;20546;-52
2022/12/30 04:47:30;;;;;;;6.43;2.37;;;6.90;46.30;;;;;;5029833;28;20562;-52
2022/12/30 04:49:56;;;;;;;6.97;1.60;;;6.80;42.80;;;;;;5030356;28;20491;-52
2022/12/30 04:52:23;;;;;;;4.97;1.90;;;6.80;41.80;;;;;;5032434;28;20458;-52
2022/12/30 04:54:50;;;;;;;7.87;2.73;;;6.80;42.80;;;;;;5028588;28;20564;-54
2022/12/30 04:57:16;;;;;;;9.13;1.83;;;6.70;39.50;;;;;;5032667;28;20573;-52
2022/12/30 04:59:44;;;;;;;11.17;2.53;;;6.70;39.60;;;;;;5028432;28;20460;-52
2022/12/30 05:02:11;;;;;;;7.97;2.20;;;6.70;39.50;;;;;;5030739;28;20546;-53
2022/12/30 05:04:37;;;;;;;18.63;3.17;;;6.70;40.00;;;;;;5032530;28;20541;-53
2022/12/30 05:07:04;;;;;;;8.90;2.33;;;6.60;37.00;;;;;;5033121;28;20495;-53
2022/12/30 05:09:31;;;;;;;3.67;2.27;;;6.60;36.20;;;;;;5031540;28;20573;-52
2022/12/30 05:11:57;;;;;;;8.53;2.40;;;6.60;37.10;;;;;;5029585;28;20907;-52
2022/12/30 05:14:24;;;;;;;4.30;2.00;;;6.50;33.80;;;;;;5031074;28;20559;-52
2022/12/30 05:16:52;;;;;;;8.13;2.43;;;6.40;29.90;;;;;;5032581;28;20562;-52
2022/12/30 05:19:18;;;;;;;8.73;2.47;;;6.40;27.30;;;;;;5034468;28;20527;-53
2022/12/30 05:21:45;;;;;;;7.00;2.30;;;6.40;27.30;;;;;;5031577;28;20547;-52
2022/12/30 05:27:04;;;;;;;5.37;2.37;;;6.30;25.60;;;;;;4994465;28;21033;-52
2022/12/30 05:29:31;;;;;;;4.00;1.80;;;6.30;25.40;;;;;;5032485;28;21096;-52
2022/12/30 05:31:58;;;;;;;3.03;1.43;;;6.20;22.00;;;;;;5033207;28;21037;-52
2022/12/30 05:34:25;;;;;;;6.90;2.47;;;6.20;22.20;;;;;;5032206;28;20984;-51
2022/12/30 05:36:52;;;;;;;6.03;2.37;;;6.20;20.80;;;;;;5033747;28;20569;-53
2022/12/30 05:39:18;;;;;;;6.63;2.50;;;6.20;20.80;;;;;;5032797;28;20562;-52
2022/12/30 05:41:45;;;;;;;4.93;2.10;;;6.20;21.50;;;;;;5030067;28;20549;-52
2022/12/30 05:44:11;;;;;;;7.67;2.57;;;6.10;84.90;;;;;;5031051;28;21020;-52
2022/12/30 05:46:38;;;;;;;3.80;1.70;;;6.10;99.90;;;;;;5031416;28;20471;-52
2022/12/30 05:49:06;;;;;;;6.73;2.60;;;6.10;99.90;;;;;;5032396;28;20562;-52
2022/12/30 05:51:32;;;;;;;5.53;2.27;;;6.10;99.90;;;;;;5031286;28;20551;-52
2022/12/30 05:53:59;;;;;;;5.13;2.90;;;6.10;85.50;;;;;;5032006;28;21063;-52
2022/12/30 05:56:25;;;;;;;6.53;2.60;;;6.10;77.50;;;;;;5026334;28;21034;-52
2022/12/30 05:58:52;;;;;;;3.17;1.53;;;6.10;95.60;;;;;;5031249;28;20487;-52
2022/12/30 06:01:18;;;;;;;8.73;2.10;;;6.10;95.20;;;;;;5031365;28;20646;-52
2022/12/30 06:03:45;;;;;;;5.37;2.17;;;6.10;96.40;;;;;;5031679;28;20496;-52
2022/12/30 06:06:13;;;;;;;7.70;3.03;;;6.00;99.90;;;;;;5031548;28;20550;-52
2022/12/30 06:08:40;;;;;;;6.47;1.90;;;6.00;99.90;;;;;;5026176;28;20574;-52
2022/12/30 06:11:07;;;;;;;6.93;1.80;;;6.00;99.90;;;;;;5027975;28;20526;-52
2022/12/30 06:13:34;;;;;;;5.97;2.20;;;5.90;99.90;;;;;;5029980;28;20554;-51
2022/12/30 06:16:01;;;;;;;3.57;1.40;;;5.90;99.90;;;;;;5031878;28;20460;-54
2022/12/30 06:18:27;;;;;;;5.57;2.30;;;5.80;99.90;;;;;;5031033;28;20534;-52
2022/12/30 06:20:55;;;;;;;7.00;1.93;;;5.80;99.90;;;;;;5031248;28;20965;-52
2022/12/30 06:23:23;;;;;;;7.73;2.00;;;5.80;99.90;;;;;;5031992;28;20539;-53
2022/12/30 06:25:52;;;;;;;5.07;1.97;;;5.70;99.90;;;;;;5031197;28;20594;-52
2022/12/30 06:28:18;;;;;;;9.07;2.70;;;5.70;99.90;;;;;;5032970;28;20471;-52
2022/12/30 06:30:45;;;;;;;5.43;2.73;;;5.70;99.90;;;;;;5032438;28;20519;-52
2022/12/30 06:33:11;;;;;;;7.83;2.37;;;5.60;99.90;;;;;;5031287;28;20546;-53
2022/12/30 06:35:38;;;;;;;6.90;2.10;;;5.60;99.90;;;;;;5030289;28;21032;-52
2022/12/30 06:38:05;;;;;;;7.33;2.13;;;5.60;99.90;;;;;;5031647;28;21119;-52
2022/12/30 06:40:32;;;;;;;6.80;2.30;;;5.60;99.90;;;;;;5031102;28;20542;-52
2022/12/30 06:42:59;;;;;;;5.80;2.00;;;5.60;99.90;;;;;;5030570;28;20551;-53
2022/12/30 06:45:26;;;;;;;7.20;2.30;;;5.60;99.90;;;;;;5029937;28;20460;-52
2022/12/30 06:47:52;;;;;;;12.23;2.20;;;5.60;99.90;;;;;;5032256;28;20575;-53
2022/12/30 06:50:19;;;;;;;7.17;2.17;;;5.50;99.90;;;;;;5030168;28;20511;-53
2022/12/30 06:52:45;;;;;;;11.57;3.03;;;5.50;99.90;;;;;;5032741;28;20479;-53
2022/12/30 06:55:12;;;;;;;8.53;2.13;;;5.40;99.90;;;;;;5030850;28;20530;-53
2022/12/30 06:57:40;;;;;;;8.17;2.57;;;5.40;99.90;;;;;;5031135;28;21068;-53
2022/12/30 07:00:08;;;;;;;4.30;2.30;;;5.40;99.90;;;;;;5022092;28;20552;-53
2022/12/30 07:02:35;;;;;;;9.13;2.43;;;5.40;99.90;;;;;;5025795;28;21034;-52
2022/12/30 07:05:02;;;;;;;5.70;2.63;;;5.40;99.90;;;;;;5027318;28;20472;-52
2022/12/30 07:07:28;;;;;;;5.77;1.77;;;5.30;99.90;;;;;;5029279;28;21087;-52
2022/12/30 07:09:55;;;;;;;7.10;2.00;;;5.40;99.90;;;;;;5026907;28;20587;-52
2022/12/30 07:12:21;;;;;;;7.83;2.10;;;5.30;99.90;;;;;;5029275;28;20559;-51
2022/12/30 07:14:49;;;;;;;8.73;3.13;;;5.20;99.90;;;;;;5027255;28;20572;-52
2022/12/30 07:17:16;;;;;;;4.27;2.37;;;5.20;99.90;;;;;;5026314;28;21100;-52
2022/12/30 07:19:42;;;;;;;9.43;2.13;;;5.20;99.90;;;;;;5024196;28;20515;-52
2022/12/30 07:22:09;;;;;;;7.80;2.20;;;5.20;99.90;;;;;;5025471;28;20828;-53
2022/12/30 07:24:35;;;;;;;6.23;2.10;;;5.20;99.90;;;;;;5027903;28;20547;-52
2022/12/30 07:27:02;;;;;;;5.30;1.93;;;5.10;99.90;;;;;;5025471;28;20949;-52
2022/12/30 07:29:29;;;;;;;5.83;2.43;;;5.10;99.90;;;;;;5030333;28;20574;-52
2022/12/30 07:31:57;;;;;;;6.70;2.20;;;5.10;99.90;;;;;;5027038;28;20454;-52
2022/12/30 07:34:23;;;;;;;6.50;2.60;;;5.10;99.90;;;;;;5029119;28;20455;-53
2022/12/30 07:36:50;;;;;;;8.97;2.43;;;5.20;99.90;;;;;;5027255;28;21075;-52
2022/12/30 07:39:17;;;;;;;10.90;3.23;;;5.10;99.90;;;;;;5011630;28;20467;-52
2022/12/30 07:41:43;;;;;;;7.30;2.63;;;5.10;99.90;;;;;;5013586;28;20456;-52
2022/12/30 07:44:10;;;;;;;7.87;2.53;;;5.20;99.90;;;;;;5021392;28;20558;-52
2022/12/30 07:46:37;;;;;;;11.70;3.23;;;5.10;99.90;;;;;;5023890;28;20570;-52
2022/12/30 07:49:05;;;;;;;8.27;2.40;;;5.00;99.90;;;;;;5025780;28;20484;-52
2022/12/30 07:51:31;;;;;;;5.80;2.17;;;5.10;99.90;;;;;;5016535;28;20586;-52
2022/12/30 07:53:58;;;;;;;5.73;2.50;;;5.20;99.90;;;;;;5017887;28;20545;-52
2022/12/30 07:56:25;;;;;;;9.90;2.43;;;5.10;99.90;;;;;;5017314;28;20479;-52
2022/12/30 07:58:53;;;;;;;9.57;2.77;;;5.10;99.90;;;;;;5019583;28;20546;-52
2022/12/30 08:01:20;;;;;;;6.73;2.53;;;5.20;99.90;;;;;;5014369;28;20514;-53
2022/12/30 08:03:47;;;;;;;10.50;3.10;;;5.10;99.90;;;;;;5020567;28;20464;-52
2022/12/30 08:06:17;;;;;;;8.27;2.77;;;5.20;99.90;;;;;;5018957;28;21606;-52
2022/12/30 08:08:44;;;;;;;6.07;2.13;;;5.20;99.90;;;;;;5013289;28;20832;-52
2022/12/30 08:11:13;;;;;;;8.00;3.00;;;5.20;99.90;;;;;;5024572;28;20542;-53
2022/12/30 08:13:42;;;;;;;6.40;2.13;;;5.20;99.90;;;;;;5027710;28;20547;-53
2022/12/30 08:16:11;;;;;;;6.30;2.83;;;5.20;99.90;;;;;;5020919;28;20558;-52
2022/12/30 08:18:37;;;;;;;13.80;2.63;;;5.30;99.90;;;;;;5022033;28;20539;-52
2022/12/30 08:21:07;;;;;;;6.30;3.07;;;5.30;99.90;;;;;;5023955;28;20980;-52
2022/12/30 08:23:35;;;;;;;6.83;3.23;;;5.30;99.90;;;;;;5020794;28;21363;-53
2022/12/30 08:26:04;;;;;;;8.50;2.50;;;5.40;99.90;;;;;;5027217;28;20554;-53
2022/12/30 08:28:30;;;;;;;6.93;2.80;;;5.50;99.90;;;;;;5030797;28;20498;-52
2022/12/30 08:30:57;;;;;;;7.67;3.00;;;5.50;99.90;;;;;;5032201;28;20823;-52
2022/12/30 08:33:23;;;;;;;15.93;2.50;;;5.60;99.90;;;;;;5026435;28;20563;-52
2022/12/30 08:35:50;;;;;;;3.57;2.40;;;5.60;99.90;;;;;;5027424;28;20558;-53
2022/12/30 08:38:17;;;;;;;9.23;3.50;;;5.80;99.90;;;;;;5024966;28;21104;-53
2022/12/30 08:40:44;;;;;;;7.80;3.33;;;5.80;94.40;;;;;;5029422;28;20543;-53
2022/12/30 08:43:12;;;;;;;6.97;3.40;;;6.00;25.30;;;;;;5027138;28;20594;-53
2022/12/30 08:45:38;;;;;;;8.23;3.10;;;6.10;32.70;;;;;;5035662;28;20459;-52
2022/12/30 08:48:05;;;;;;;9.33;3.30;;;6.30;44.90;;;;;;5032177;28;20554;-51
2022/12/30 08:50:32;;;;;;;8.47;3.63;;;6.40;53.40;;;;;;5023405;28;20491;-50
2022/12/30 08:52:58;;;;;;;13.37;3.53;;;6.50;53.70;;;;;;5028827;28;20474;-51
2022/12/30 08:55:27;;;;;;;5.93;2.90;;;6.60;60.70;;;;;;5026270;28;20544;-52
2022/12/30 08:57:55;;;;;;;13.73;3.30;;;6.70;63.60;;;;;;5026096;28;20822;-54
2022/12/30 09:00:21;;;;;;;12.03;2.80;;;6.80;67.60;;;;;;5020900;28;20590;-52
2022/12/30 09:02:48;;;;;;;8.90;2.63;;;6.70;64.90;;;;;;5023851;28;21036;-52
2022/12/30 09:05:15;;;;;;;3.20;2.13;;;6.60;65.10;;;;;;5025473;28;20563;-54
2022/12/30 09:07:41;;;;;;;11.13;2.93;;;6.70;61.90;;;;;;5022445;28;20585;-52
2022/12/30 09:10:11;;;;;;;4.87;2.47;;;6.70;66.00;;;;;;5019873;28;20484;-52
2022/12/30 09:12:38;;;;;;;6.77;2.47;;;6.90;71.60;;;;;;5026321;28;20484;-53
2022/12/30 09:15:08;;;;;;;4.53;2.40;;;7.30;80.80;;;;;;5024405;28;20554;-59
2022/12/30 09:17:34;;;;;;;5.70;2.00;;;7.20;86.20;;;;;;5023794;28;20570;-52
2022/12/30 09:20:01;;;;;;;6.93;2.73;;;7.10;82.30;;;;;;5027303;28;20483;-52
2022/12/30 09:22:27;;;;;;;7.30;2.63;;;7.40;86.90;;;;;;5025202;28;21047;-52
2022/12/30 09:24:54;;;;;;;7.83;2.63;;;7.30;89.90;;;;;;5029492;28;20554;-52
2022/12/30 09:27:20;;;;;;;7.13;2.03;;;7.20;86.90;;;;;;5028153;28;20577;-52
2022/12/30 09:29:47;;;;;;;4.00;2.00;;;7.20;84.50;;;;;;5030037;28;20574;-51
2022/12/30 09:32:15;;;;;;;4.13;1.90;;;7.20;82.60;;;;;;5021859;28;20556;-51
2022/12/30 09:34:42;;;;;;;9.90;3.10;;;7.50;90.80;;;;;;5029348;28;20549;-51
2022/12/30 09:37:09;;;;;;;6.33;2.57;;;7.70;99.90;;;;;;5020314;28;20491;-52
2022/12/30 09:39:35;;;;;;;6.63;3.00;;;8.10;99.90;;;;;;5021467;28;20475;-52
2022/12/30 09:45:13;;;;;;;10.20;2.60;;;8.00;99.90;;;;;;5022921;28;20463;-51
2022/12/30 09:47:46;;;;;;;6.70;2.17;;;8.30;99.90;;;;;;5026551;28;20511;-52
2022/12/30 09:50:21;;;;;;;5.07;1.83;;;8.50;99.90;;;;;;5029738;28;20554;-51
2022/12/30 09:52:54;;;;;;;10.03;2.80;;;8.80;99.90;;;;;;5021854;28;20601;-51
2022/12/30 09:55:25;;;;;;;5.63;2.00;;;9.40;99.90;;;;;;5024272;28;20550;-52
2022/12/30 09:57:55;;;;;;;7.00;2.50;;;9.70;34.20;;;;;;5024220;28;20575;-52
2022/12/30 10:00:24;;;;;;;5.23;2.37;;;10.40;44.40;;;;;;5022983;28;20545;-51
2022/12/30 10:03:01;;;;;;;8.90;2.57;;;11.00;77.90;;;;;;5026837;28;21032;-52
2022/12/30 10:05:46;;;;;;;6.57;2.50;;;11.80;94.80;;;;;;5028360;28;20538;-51
2022/12/30 10:08:36;;;;;;;11.90;2.40;;;11.80;99.90;;;;;;5024518;28;20573;-51
2022/12/30 10:11:14;;;;;;;6.30;1.70;;;11.10;99.90;;;;;;5026692;28;20569;-52
2022/12/30 10:13:49;;;;;;;7.13;2.53;;;10.60;98.80;;;;;;5023888;28;20475;-52
2022/12/30 10:16:22;;;;;;;4.97;2.10;;;10.60;95.80;;;;;;5018282;28;20539;-52
2022/12/30 10:19:02;;;;;;;11.17;2.60;;;10.50;85.90;;;;;;5021574;28;20583;-52
2022/12/30 10:21:40;;;;;;;8.10;2.63;;;10.40;84.70;;;;;;5023308;28;20571;-51
2022/12/30 10:24:31;;;;;;;6.70;2.13;;;10.20;76.60;;;;;;5018845;28;20551;-52
2022/12/30 10:26:59;;;;;;;9.30;2.10;;;10.10;71.20;;;;;;5017727;28;20572;-52
2022/12/30 10:29:30;;;;;;;6.60;1.97;;;9.40;49.30;;;;;;5021416;28;21085;-51
2022/12/30 10:32:00;;;;;;;7.13;2.33;;;9.10;24.50;;;;;;5022973;28;20464;-51
2022/12/30 10:34:33;;;;;;;7.67;2.50;;;9.00;73.10;;;;;;5023869;28;20550;-52
2022/12/30 10:37:01;;;;;;;7.20;3.00;;;9.00;99.90;;;;;;5027494;28;21003;-51
2022/12/30 10:39:32;;;;;;;13.03;3.77;;;9.00;99.90;;;;;;5031713;28;20461;-51
2022/12/30 10:42:12;;;;;;;6.13;2.70;;;9.30;89.80;;;;;;5027056;28;20456;-52
2022/12/30 10:44:54;;;;;;;5.87;1.83;;;9.60;37.50;;;;;;5032194;28;20460;-53
2022/12/30 10:47:35;;;;;;;9.23;2.50;;;9.80;50.10;;;;;;5023628;28;20561;-52
2022/12/30 10:50:16;;;;;;;14.23;2.70;;;10.70;76.30;;;;;;5027620;28;20510;-52
2022/12/30 10:52:43;;;;;;;10.10;2.57;;;10.60;82.00;;;;;;5027894;28;20467;-51
2022/12/30 10:55:21;;;;;;;12.93;2.27;;;10.40;80.30;;;;;;5026497;28;20547;-51
2022/12/30 10:57:50;;;;;;;4.93;3.03;;;9.80;69.90;;;;;;5026844;28;20545;-51
2022/12/30 11:00:20;;;;;;;8.47;2.33;;;10.10;62.80;;;;;;5030036;28;20518;-51
2022/12/30 11:02:54;;;;;;;6.70;2.13;;;10.30;63.40;;;;;;5027839;28;20463;-51
2022/12/30 11:05:32;;;;;;;4.03;2.00;;;10.20;78.90;;;;;;5032858;28;20944;-51
2022/12/30 11:08:00;;;;;;;3.07;2.07;;;10.00;61.70;;;;;;5027250;28;21033;-52
2022/12/30 11:10:27;;;;;;;4.90;2.10;;;9.60;50.80;;;;;;5028001;28;21080;-50
2022/12/30 11:15:54;;;;;;;10.43;2.53;;;10.20;52.20;;;;;;5029212;28;20450;-51
2022/12/30 11:18:25;;;;;;;7.57;2.03;;;11.50;91.20;;;;;;5021643;28;20570;-51
2022/12/30 11:20:55;;;;;;;8.43;2.13;;;10.50;80.40;;;;;;5027548;28;20530;-50
2022/12/30 11:23:26;;;;;;;4.20;1.93;;;10.40;80.50;;;;;;5027649;28;20539;-50
2022/12/30 11:25:54;;;;;;;6.80;2.90;;;10.40;75.40;;;;;;5028998;28;20467;-51
2022/12/30 11:28:24;;;;;;;5.17;1.70;;;9.90;65.40;;;;;;5026988;28;20484;-52
2022/12/30 11:30:59;;;;;;;5.20;2.23;;;9.60;54.30;;;;;;5029109;28;20470;-51
2022/12/30 11:33:28;;;;;;;4.93;2.60;;;9.60;48.30;;;;;;5023570;28;20553;-51
2022/12/30 11:36:11;;;;;;;7.23;1.67;;;9.50;44.60;;;;;;5029089;28;20467;-51
2022/12/30 11:38:39;;;;;;;7.43;2.30;;;9.60;47.70;;;;;;5028118;28;20492;-51
2022/12/30 11:41:21;;;;;;;7.57;2.07;;;9.70;52.00;;;;;;5021108;28;20555;-51
2022/12/30 11:43:50;;;;;;;8.87;2.33;;;9.70;47.80;;;;;;5019463;28;20574;-50
2022/12/30 11:46:19;;;;;;;7.50;2.00;;;9.70;41.40;;;;;;5024947;28;21020;-51
2022/12/30 11:48:48;;;;;;;5.37;1.60;;;9.50;35.10;;;;;;5022560;28;20464;-51
2022/12/30 11:51:20;;;;;;;8.00;2.07;;;9.40;33.30;;;;;;5017581;28;20574;-51
2022/12/30 11:53:47;;;;;;;8.17;2.20;;;9.40;28.50;;;;;;5024265;28;20568;-50
2022/12/30 11:56:21;;;;;;;11.50;3.20;;;9.40;28.20;;;;;;5022977;28;20591;-50
2022/12/30 11:58:48;;;;;;;6.23;2.07;;;9.30;99.90;;;;;;5019545;28;20468;-50
2022/12/30 12:01:15;;;;;;;12.40;2.40;;;9.40;82.50;;;;;;5029648;28;21007;-52
2022/12/30 12:03:50;;;;;;;3.80;1.93;;;9.40;22.50;;;;;;5025822;28;20544;-51
2022/12/30 12:06:18;;;;;;;5.43;1.80;;;9.50;22.70;;;;;;5025107;28;21249;-51
2022/12/30 12:08:51;;;;;;;6.57;2.47;;;9.50;24.20;;;;;;5027721;28;20565;-51
2022/12/30 12:11:20;;;;;;;8.63;3.23;;;9.60;32.70;;;;;;5021736;28;20587;-50
2022/12/30 12:13:53;;;;;;;6.73;2.50;;;9.80;36.00;;;;;;5025812;28;20535;-51
2022/12/30 12:16:32;;;;;;;7.50;2.33;;;10.10;55.20;;;;;;5020815;28;21008;-51
2022/12/30 12:19:12;;;;;;;5.27;2.30;;;10.10;55.60;;;;;;5025272;28;20468;-51
2022/12/30 12:21:41;;;;;;;9.57;2.50;;;10.00;53.50;;;;;;5019940;28;20455;-51
2022/12/30 12:24:18;;;;;;;5.67;1.67;;;9.80;46.90;;;;;;5028535;28;21017;-50
2022/12/30 12:26:52;;;;;;;11.07;3.23;;;9.70;41.20;;;;;;5025101;28;21346;-51
2022/12/30 12:29:18;;;;;;;7.20;2.50;;;9.50;37.20;;;;;;5022645;28;20504;-50
2022/12/30 12:32:10;;;;;;;7.70;2.30;;;9.50;34.90;;;;;;5030048;28;21102;-50
2022/12/30 12:34:48;;;;;;;6.50;3.23;;;9.50;31.50;;;;;;5029382;28;20551;-50
2022/12/30 12:37:31;;;;;;;6.10;2.90;;;9.50;27.00;;;;;;5027718;28;20510;-50
2022/12/30 12:40:31;;;;;;;14.37;3.20;;;9.40;33.00;;;;;;5028616;28;20464;-50
2022/12/30 12:43:07;;;;;;;13.37;3.20;;;9.50;29.10;;;;;;5013900;28;21141;-50
2022/12/30 12:45:47;;;;;;;6.67;3.00;;;9.60;32.10;;;;;;5026288;28;20562;-52
2022/12/30 12:48:40;;;;;;;9.53;3.10;;;9.60;39.70;;;;;;5017036;28;20479;-51
2022/12/30 12:51:25;;;;;;;12.63;2.67;;;9.60;37.40;;;;;;5020411;28;20483;-51
2022/12/30 12:54:18;;;;;;;7.93;2.30;;;9.50;31.20;;;;;;5026543;28;20545;-51
2022/12/30 12:57:04;;;;;;;8.13;1.97;;;9.40;24.40;;;;;;5023425;28;21055;-50
2022/12/30 12:59:44;;;;;;;5.00;3.17;;;9.40;21.50;;;;;;5017228;28;20502;-51
2022/12/30 13:02:37;;;;;;;4.93;2.20;;;9.30;78.30;;;;;;5023709;28;20460;-51
2022/12/30 13:05:10;;;;;;;4.70;2.10;;;9.30;20.30;;;;;;5027401;28;20514;-51
2022/12/30 13:07:50;;;;;;;8.83;2.43;;;9.40;72.10;;;;;;5019640;28;20573;-51
2022/12/30 13:10:33;;;;;;;7.77;2.50;;;9.30;97.40;;;;;;5023179;28;20551;-50
2022/12/30 13:13:05;;;;;;;11.30;2.50;;;9.20;99.70;;;;;;5018679;28;20473;-52
2022/12/30 13:15:37;;;;;;;5.47;1.90;;;9.10;99.90;;;;;;5033940;28;20555;-51
2022/12/30 13:18:09;;;;;;;7.13;2.53;;;9.10;99.90;;;;;;5025934;28;20476;-51
2022/12/30 13:20:45;;;;;;;6.10;2.40;;;9.10;99.90;;;;;;5027276;28;20515;-52
2022/12/30 13:23:15;;;;;;;5.87;2.57;;;9.00;99.90;;;;;;5020979;28;20549;-52
2022/12/30 13:25:46;;;;;;;8.33;2.63;;;9.00;99.90;;;;;;5019738;28;20463;-52
2022/12/30 13:28:19;;;;;;;5.10;2.53;;;9.00;99.90;;;;;;5019287;28;21120;-51
2022/12/30 13:30:54;;;;;;;4.47;2.00;;;8.90;99.90;;;;;;5019050;28;20508;-52
2022/12/30 13:33:28;;;;;;;7.53;2.60;;;8.90;99.90;;;;;;5020134;28;20549;-52
2022/12/30 13:36:00;;;;;;;8.33;2.77;;;8.90;99.90;;;;;;5019889;28;20555;-52
2022/12/30 13:38:42;;;;;;;7.70;2.60;;;8.90;99.90;;;;;;5031824;28;20571;-54
2022/12/30 13:41:26;;;;;;;4.83;2.70;;;8.90;99.90;;;;;;5029635;28;20459;-51
2022/12/30 13:43:55;;;;;;;8.67;2.57;;;8.90;99.90;;;;;;5026935;28;20534;-52
2022/12/30 13:46:23;;;;;;;2.60;2.10;;;8.90;99.90;;;;;;5027481;28;20556;-52
2022/12/30 13:48:55;;;;;;;6.07;2.80;;;9.10;99.90;;;;;;5031636;28;20550;-52
2022/12/30 13:51:23;;;;;;;11.20;2.50;;;9.30;99.90;;;;;;5029449;28;20555;-52
2022/12/30 13:53:56;;;;;;;7.53;2.70;;;9.60;27.60;;;;;;5029845;28;20514;-51
2022/12/30 13:56:38;;;;;;;8.93;2.50;;;9.50;25.50;;;;;;5028033;28;20535;-52
2022/12/30 13:59:05;;;;;;;13.53;3.07;;;9.20;96.80;;;;;;5031488;28;20566;-52
2022/12/30 14:01:36;;;;;;;8.93;2.33;;;9.10;99.90;;;;;;5024966;28;20467;-52
2022/12/30 14:04:43;;;;;;;5.63;2.10;;;8.90;99.90;;;;;;5037089;28;20463;-52
2022/12/30 14:07:50;;;;;;;19.63;3.87;;;8.80;99.90;;;;;;5024508;28;20490;-51
2022/12/30 14:10:43;;;;;;;12.07;2.80;;;8.70;99.90;;;;;;5027146;28;20553;-51
2022/12/30 14:13:35;;;;;;;5.63;2.60;;;8.60;99.90;;;;;;5029623;28;20536;-51
2022/12/30 14:16:05;;;;;;;9.67;3.50;;;8.60;99.90;;;;;;5025463;28;20462;-52